createdAt,value
2023-04-06T00:00:47.933Z,11.72
2023-04-06T00:03:20.952Z,11.68
2023-04-06T00:05:55.499Z,11.62
2023-04-06T00:08:28.729Z,11.58
2023-04-06T00:11:01.678Z,11.55
2023-04-06T00:13:34.255Z,11.67
2023-04-06T00:16:07.913Z,11.63
2023-04-06T00:18:43.523Z,11.63
2023-04-06T00:21:17.818Z,11.54
2023-04-06T00:23:50.524Z,11.59
2023-04-06T00:26:23.479Z,11.53
2023-04-06T00:29:00.012Z,11.53
2023-04-06T00:31:32.973Z,11.49
2023-04-06T00:34:06.164Z,11.52
2023-04-06T00:36:40.510Z,11.47
2023-04-06T00:39:13.472Z,11.47
2023-04-06T00:41:48.207Z,11.39
2023-04-06T00:44:21.549Z,11.36
2023-04-06T00:46:56.080Z,11.38
2023-04-06T00:49:28.932Z,11.39
2023-04-06T00:52:03.858Z,11.30
2023-04-06T00:54:36.748Z,11.29
2023-04-06T00:57:10.374Z,11.33
2023-04-06T00:59:43.235Z,11.29
2023-04-06T01:02:18.163Z,11.32
2023-04-06T01:04:55.740Z,11.20
2023-04-06T01:07:38.203Z,11.18
2023-04-06T01:10:25.515Z,11.20
2023-04-06T01:13:01.599Z,11.19
2023-04-06T01:15:50.455Z,11.13
2023-04-06T01:18:31.482Z,11.14
2023-04-06T01:21:18.794Z,11.14
2023-04-06T01:24:12.311Z,11.10
2023-04-06T01:27:12.018Z,11.02
2023-04-06T01:30:12.997Z,11.05
2023-04-06T01:32:54.753Z,11.00
2023-04-06T01:35:46.352Z,11.01
2023-04-06T01:38:22.688Z,11.04
2023-04-06T01:40:57.705Z,11.05
2023-04-06T01:43:33.153Z,11.02
2023-04-06T01:46:15.605Z,11.03
2023-04-06T01:48:51.533Z,11.04
2023-04-06T01:51:41.202Z,11.08
2023-04-06T01:54:20.480Z,11.00
2023-04-06T01:57:21.717Z,11.03
2023-04-06T02:00:00.255Z,10.98
2023-04-06T02:02:46.479Z,11.03
2023-04-06T02:05:27.090Z,10.98
2023-04-06T02:08:01.652Z,10.96
2023-04-06T02:10:42.544Z,10.97
2023-04-06T02:13:25.837Z,10.96
2023-04-06T02:16:00.154Z,10.93
2023-04-06T02:18:35.962Z,10.94
2023-04-06T02:21:09.489Z,10.98
2023-04-06T02:23:42.518Z,10.93
2023-04-06T02:26:15.662Z,10.97
2023-04-06T02:28:50.005Z,10.89
2023-04-06T02:31:23.090Z,10.91
2023-04-06T02:33:59.970Z,10.87
2023-04-06T02:36:34.582Z,10.89
2023-04-06T02:39:08.149Z,10.87
2023-04-06T02:41:41.473Z,10.85
2023-04-06T02:44:16.533Z,10.89
2023-04-06T02:46:51.235Z,10.87
2023-04-06T02:49:23.933Z,10.85
2023-04-06T02:52:01.114Z,10.83
2023-04-06T02:54:40.600Z,10.84
2023-04-06T02:57:13.512Z,10.87
2023-04-06T02:59:51.836Z,10.77
2023-04-06T03:02:30.547Z,10.78
2023-04-06T03:05:11.029Z,10.71
2023-04-06T03:07:48.258Z,10.69
2023-04-06T03:10:29.644Z,10.72
2023-04-06T03:13:02.438Z,10.68
2023-04-06T03:15:55.744Z,10.63
2023-04-06T03:18:28.950Z,10.65
2023-04-06T03:21:04.483Z,10.63
2023-04-06T03:23:52.620Z,10.69
2023-04-06T03:26:26.001Z,10.67
2023-04-06T03:28:58.988Z,10.60
2023-04-06T03:31:38.301Z,10.63
2023-04-06T03:34:26.522Z,10.60
2023-04-06T03:37:09.344Z,10.65
2023-04-06T03:39:48.209Z,10.59
2023-04-06T03:42:28.013Z,10.59
2023-04-06T03:45:09.020Z,10.63
2023-04-06T03:47:46.164Z,10.55
2023-04-06T03:50:19.096Z,10.60
2023-04-06T03:52:51.909Z,10.59
2023-04-06T03:55:25.368Z,10.57
2023-04-06T03:57:58.177Z,10.64
2023-04-06T04:00:31.036Z,10.61
2023-04-06T04:03:05.539Z,10.65
2023-04-06T04:05:38.827Z,10.55
2023-04-06T04:08:12.131Z,10.67
2023-04-06T04:10:44.752Z,10.63
2023-04-06T04:13:18.139Z,10.58
2023-04-06T04:16:04.899Z,10.61
2023-04-06T04:18:39.050Z,10.66
2023-04-06T04:21:21.152Z,10.60
2023-04-06T04:23:54.478Z,10.64
2023-04-06T04:26:29.678Z,10.66
2023-04-06T04:29:02.529Z,10.64
2023-04-06T04:31:37.336Z,10.64
2023-04-06T04:34:16.561Z,10.56
2023-04-06T04:36:49.395Z,10.57
2023-04-06T04:39:32.124Z,10.58
2023-04-06T04:42:09.798Z,10.63
2023-04-06T04:44:48.073Z,10.62
2023-04-06T04:47:26.562Z,10.59
2023-04-06T04:50:00.883Z,10.57
2023-04-06T04:52:34.291Z,10.57
2023-04-06T04:55:18.737Z,10.60
2023-04-06T04:57:54.228Z,10.62
2023-04-06T05:00:33.045Z,10.58
2023-04-06T05:03:08.081Z,10.56
2023-04-06T05:05:48.322Z,10.63
2023-04-06T05:08:23.311Z,10.66
2023-04-06T05:10:56.344Z,10.59
2023-04-06T05:13:29.929Z,10.64
2023-04-06T05:16:04.039Z,10.63
2023-04-06T05:18:39.487Z,10.59
2023-04-06T05:21:14.578Z,10.58
2023-04-06T05:24:04.340Z,10.56
2023-04-06T05:26:39.832Z,10.56
2023-04-06T05:29:21.115Z,10.55
2023-04-06T05:31:54.078Z,10.59
2023-04-06T05:34:31.080Z,10.59
2023-04-06T05:37:10.180Z,10.55
2023-04-06T05:39:43.072Z,10.61
2023-04-06T05:42:16.374Z,10.61
2023-04-06T05:45:01.737Z,10.60
2023-04-06T05:47:35.047Z,10.67
2023-04-06T05:50:18.505Z,10.68
2023-04-06T05:52:56.147Z,10.58
2023-04-06T05:55:32.604Z,10.55
2023-04-06T05:58:18.592Z,10.61
2023-04-06T06:00:51.930Z,10.62
2023-04-06T06:03:27.111Z,10.62
2023-04-06T06:06:05.387Z,10.63
2023-04-06T06:09:06.412Z,10.66
2023-04-06T06:11:45.945Z,10.71
2023-04-06T06:14:22.808Z,10.70
2023-04-06T06:16:55.677Z,10.67
2023-04-06T06:19:29.048Z,10.72
2023-04-06T06:22:06.078Z,10.66
2023-04-06T06:24:43.688Z,10.68
2023-04-06T06:27:16.968Z,10.73
2023-04-06T06:29:49.859Z,10.69
2023-04-06T06:32:25.901Z,10.70
2023-04-06T06:35:03.161Z,10.68
2023-04-06T06:37:36.292Z,10.70
2023-04-06T06:40:14.257Z,10.75
2023-04-06T06:43:13.526Z,10.75
2023-04-06T06:46:00.213Z,10.73
2023-04-06T06:48:36.616Z,10.76
2023-04-06T06:51:10.620Z,10.82
2023-04-06T06:53:43.959Z,10.86
2023-04-06T06:56:18.655Z,10.84
2023-04-06T06:58:51.978Z,10.84
2023-04-06T07:01:25.736Z,10.90
2023-04-06T07:04:00.488Z,10.86
2023-04-06T07:06:33.381Z,10.75
2023-04-06T07:09:06.376Z,10.76
2023-04-06T07:11:40.791Z,10.73
2023-04-06T07:14:14.410Z,10.76
2023-04-06T07:16:47.948Z,10.83
2023-04-06T07:19:21.633Z,10.83
2023-04-06T07:21:54.451Z,10.87
2023-04-06T07:24:27.599Z,10.89
2023-04-06T07:27:02.803Z,10.94
2023-04-06T07:29:35.710Z,10.95
2023-04-06T07:32:08.724Z,10.95
2023-04-06T07:34:41.738Z,11.05
2023-04-06T07:37:14.706Z,10.97
2023-04-06T07:39:47.976Z,11.02
2023-04-06T07:42:22.569Z,11.05
2023-04-06T07:44:56.014Z,11.09
2023-04-06T07:47:29.243Z,11.13
2023-04-06T07:50:02.341Z,11.16
2023-04-06T07:52:37.780Z,11.09
2023-04-06T07:55:11.420Z,10.98
2023-04-06T07:57:45.532Z,10.93
2023-04-06T08:00:18.758Z,11.02
2023-04-06T08:02:51.666Z,11.07
2023-04-06T08:05:24.510Z,11.17
2023-04-06T08:07:57.223Z,11.20
2023-04-06T08:10:29.936Z,11.18
2023-04-06T08:13:04.044Z,11.08
2023-04-06T08:15:37.027Z,11.26
2023-04-06T08:18:10.761Z,11.25
2023-04-06T08:20:43.564Z,11.27
2023-04-06T08:23:16.716Z,11.26
2023-04-06T08:25:49.549Z,11.29
2023-04-06T08:28:23.711Z,11.26
2023-04-06T08:30:56.589Z,11.32
2023-04-06T08:33:29.418Z,11.36
2023-04-06T08:36:09.081Z,11.42
2023-04-06T08:38:43.893Z,11.43
2023-04-06T08:41:17.899Z,11.39
2023-04-06T08:43:58.456Z,11.29
2023-04-06T08:46:32.417Z,11.39
2023-04-06T08:49:07.909Z,11.42
2023-04-06T08:51:41.917Z,11.45
2023-04-06T08:54:15.155Z,11.42
2023-04-06T08:56:49.510Z,11.48
2023-04-06T08:59:24.260Z,11.42
2023-04-06T09:01:58.222Z,11.37
2023-04-06T09:04:31.280Z,11.47
2023-04-06T09:07:06.065Z,11.49
2023-04-06T09:09:44.336Z,11.53
2023-04-06T09:12:27.735Z,11.50
2023-04-06T09:15:06.224Z,11.47
2023-04-06T09:17:39.198Z,11.53
2023-04-06T09:20:13.856Z,11.62
2023-04-06T09:22:46.614Z,11.56
2023-04-06T09:25:22.443Z,11.59
2023-04-06T09:28:01.958Z,11.59
2023-04-06T09:30:36.953Z,11.49
2023-04-06T09:33:10.006Z,11.57
2023-04-06T09:35:54.601Z,11.55
2023-04-06T09:38:27.648Z,11.54
2023-04-06T09:41:01.725Z,11.58
2023-04-06T09:43:35.106Z,11.56
2023-04-06T09:46:09.455Z,11.58
2023-04-06T09:48:44.093Z,11.53
2023-04-06T09:51:20.506Z,11.55
2023-04-06T09:53:55.861Z,11.61
2023-04-06T09:56:30.839Z,11.62
2023-04-06T09:59:12.562Z,11.58
2023-04-06T10:01:50.556Z,11.62
2023-04-06T10:04:34.717Z,11.57
2023-04-06T10:07:14.180Z,11.61
2023-04-06T10:09:51.780Z,11.63
2023-04-06T10:12:30.379Z,11.61
2023-04-06T10:15:03.364Z,11.61
2023-04-06T10:17:37.382Z,11.67
2023-04-06T10:20:14.810Z,11.72
2023-04-06T10:23:01.896Z,11.80
2023-04-06T10:25:41.113Z,11.80
2023-04-06T10:28:14.599Z,11.73
2023-04-06T10:30:50.414Z,11.76
2023-04-06T10:33:24.605Z,11.84
2023-04-06T10:35:59.343Z,11.77
2023-04-06T10:38:42.637Z,11.82
2023-04-06T10:41:19.174Z,11.92
2023-04-06T10:43:58.199Z,11.95
2023-04-06T10:46:33.315Z,11.95
2023-04-06T10:49:14.836Z,11.90
2023-04-06T10:51:53.046Z,11.97
2023-04-06T10:54:30.692Z,11.93
2023-04-06T10:57:03.531Z,11.91
2023-04-06T10:59:36.741Z,11.91
2023-04-06T11:02:09.854Z,11.87
2023-04-06T11:04:44.074Z,11.83
2023-04-06T11:07:25.724Z,11.87
2023-04-06T11:10:13.090Z,11.94
2023-04-06T11:12:55.497Z,11.90
2023-04-06T11:15:28.600Z,11.88
2023-04-06T11:18:05.937Z,11.89
2023-04-06T11:20:40.504Z,11.88
2023-04-06T11:23:13.689Z,11.99
2023-04-06T11:25:52.623Z,11.96
2023-04-06T11:28:26.045Z,11.96
2023-04-06T11:31:00.676Z,11.95
2023-04-06T11:33:38.396Z,11.98
2023-04-06T11:36:14.301Z,12.02
2023-04-06T11:38:48.664Z,12.00
2023-04-06T11:41:26.369Z,11.97
2023-04-06T11:43:59.339Z,11.89
2023-04-06T11:46:32.301Z,11.88
2023-04-06T11:49:05.310Z,11.83
2023-04-06T11:51:39.611Z,11.85
2023-04-06T11:54:12.630Z,11.95
2023-04-06T11:56:48.530Z,11.97
2023-04-06T11:59:23.938Z,11.93
2023-04-06T12:01:57.819Z,12.02
2023-04-06T12:04:31.063Z,11.98
2023-04-06T12:07:06.513Z,11.98
2023-04-06T12:09:39.804Z,11.93
2023-04-06T12:12:14.694Z,11.97
2023-04-06T12:14:47.568Z,11.97
2023-04-06T12:17:21.399Z,12.02
2023-04-06T12:19:54.287Z,12.04
2023-04-06T12:22:28.458Z,12.09
2023-04-06T12:25:01.389Z,12.10
2023-04-06T12:27:34.010Z,12.08
2023-04-06T12:30:08.234Z,12.08
2023-04-06T12:32:41.222Z,12.05
2023-04-06T12:35:16.717Z,12.08
2023-04-06T12:37:51.399Z,12.03
2023-04-06T12:40:24.196Z,12.08
2023-04-06T12:42:57.081Z,12.17
2023-04-06T12:45:30.021Z,12.17
2023-04-06T12:48:03.244Z,12.15
2023-04-06T12:50:36.459Z,12.15
2023-04-06T12:53:11.388Z,12.21
2023-04-06T12:55:44.297Z,12.22
2023-04-06T12:58:18.078Z,12.21
2023-04-06T13:00:51.681Z,12.22
2023-04-06T13:03:24.857Z,12.20
2023-04-06T13:05:57.654Z,12.20
2023-04-06T13:08:32.581Z,12.22
2023-04-06T13:11:05.881Z,12.16
2023-04-06T13:13:39.437Z,12.19
2023-04-06T13:16:12.559Z,12.25
2023-04-06T13:18:45.875Z,12.32
2023-04-06T13:21:21.738Z,12.32
2023-04-06T13:23:56.256Z,12.33
2023-04-06T13:26:29.591Z,12.28
2023-04-06T13:29:05.480Z,12.24
2023-04-06T13:31:39.204Z,12.22
2023-04-06T13:34:12.641Z,12.20
2023-04-06T13:36:45.701Z,12.21
2023-04-06T13:39:19.715Z,12.27
2023-04-06T13:41:56.999Z,12.22
2023-04-06T13:44:30.412Z,12.25
2023-04-06T13:47:03.224Z,12.36
2023-04-06T13:49:36.996Z,12.27
2023-04-06T13:52:10.979Z,12.31
2023-04-06T13:54:45.063Z,12.23
2023-04-06T13:57:18.223Z,12.22
2023-04-06T13:59:52.156Z,12.16
2023-04-06T14:02:28.385Z,12.17
2023-04-06T14:05:01.589Z,12.28
2023-04-06T14:07:34.400Z,12.23
2023-04-06T14:10:14.827Z,12.18
2023-04-06T14:12:47.910Z,12.21
2023-04-06T14:15:22.841Z,12.25
2023-04-06T14:17:55.734Z,12.27
2023-04-06T14:20:28.541Z,12.29
2023-04-06T14:23:02.306Z,12.28
2023-04-06T14:25:37.371Z,12.29
2023-04-06T14:28:10.538Z,12.28
2023-04-06T14:30:46.619Z,12.25
2023-04-06T14:33:19.430Z,12.28
2023-04-06T14:35:52.129Z,12.33
2023-04-06T14:38:24.884Z,12.32
2023-04-06T14:40:59.159Z,12.31
2023-04-06T14:43:32.218Z,12.29
2023-04-06T14:46:05.339Z,12.35
2023-04-06T14:48:38.325Z,12.33
2023-04-06T14:51:11.009Z,12.36
2023-04-06T14:53:44.517Z,12.34
2023-04-06T14:56:23.432Z,12.42
2023-04-06T14:58:59.104Z,12.40
2023-04-06T15:01:36.287Z,12.43
2023-04-06T15:04:09.734Z,12.34
2023-04-06T15:06:42.865Z,12.41
2023-04-06T15:09:15.630Z,12.46
2023-04-06T15:11:50.766Z,12.48
2023-04-06T15:14:26.154Z,12.50
2023-04-06T15:16:59.075Z,12.48
2023-04-06T15:19:31.852Z,12.47
2023-04-06T15:22:04.916Z,12.45
2023-04-06T15:24:37.990Z,12.51
2023-04-06T15:27:12.898Z,12.51
2023-04-06T15:29:45.696Z,12.45
2023-04-06T15:32:18.887Z,12.49
2023-04-06T15:34:51.658Z,12.43
2023-04-06T15:37:25.790Z,12.48
2023-04-06T15:40:00.243Z,12.45
2023-04-06T15:42:35.791Z,12.47
2023-04-06T15:45:09.415Z,12.53
2023-04-06T15:47:43.481Z,12.50
2023-04-06T15:50:16.851Z,12.47
2023-04-06T15:52:49.659Z,12.47
2023-04-06T15:55:23.836Z,12.47
2023-04-06T15:57:58.145Z,12.45
2023-04-06T16:00:31.424Z,12.41
2023-04-06T16:03:04.820Z,12.40
2023-04-06T16:05:48.450Z,12.41
2023-04-06T16:08:33.562Z,12.47
2023-04-06T16:11:09.965Z,12.41
2023-04-06T16:13:52.800Z,12.47
2023-04-06T16:16:30.914Z,12.54
2023-04-06T16:19:03.976Z,12.51
2023-04-06T16:21:37.281Z,12.47
2023-04-06T16:24:10.800Z,12.52
2023-04-06T16:26:44.411Z,12.53
2023-04-06T16:29:18.794Z,12.53
2023-04-06T16:31:52.052Z,12.54
2023-04-06T16:34:25.494Z,12.52
2023-04-06T16:36:58.929Z,12.53
2023-04-06T16:39:32.403Z,12.53
2023-04-06T16:42:08.544Z,12.51
2023-04-06T16:44:48.620Z,12.54
2023-04-06T16:47:22.082Z,12.60
2023-04-06T16:49:56.043Z,12.66
2023-04-06T16:52:42.287Z,12.60
2023-04-06T16:55:16.687Z,12.58
2023-04-06T16:57:51.690Z,12.58
2023-04-06T17:00:31.560Z,12.62
2023-04-06T17:03:04.626Z,12.65
2023-04-06T17:05:40.736Z,12.67
2023-04-06T17:08:13.616Z,12.66
2023-04-06T17:10:59.143Z,12.66
2023-04-06T17:13:35.629Z,12.66
2023-04-06T17:16:10.320Z,12.62
2023-04-06T17:18:43.033Z,12.61
2023-04-06T17:21:17.152Z,12.61
2023-04-06T17:23:50.185Z,12.62
2023-04-06T17:26:22.856Z,12.62
2023-04-06T17:28:55.788Z,12.63
2023-04-06T17:31:31.276Z,12.60
2023-04-06T17:34:04.189Z,12.63
2023-04-06T17:36:57.472Z,12.61
2023-04-06T17:39:35.528Z,12.64
2023-04-06T17:42:09.686Z,12.60
2023-04-06T17:44:42.520Z,12.59
2023-04-06T17:47:16.748Z,12.62
2023-04-06T17:49:49.898Z,12.60
2023-04-06T17:52:25.842Z,12.59
2023-04-06T17:54:59.636Z,12.58
2023-04-06T17:57:32.457Z,12.56
2023-04-06T18:00:06.172Z,12.56
2023-04-06T18:02:48.786Z,12.59
2023-04-06T18:05:22.000Z,12.55
2023-04-06T18:07:57.147Z,12.54
2023-04-06T18:10:30.062Z,12.53
2023-04-06T18:13:02.721Z,12.53
2023-04-06T18:15:38.184Z,12.53
2023-04-06T18:18:12.399Z,12.52
2023-04-06T18:20:45.531Z,12.46
2023-04-06T18:23:18.458Z,12.48
2023-04-06T18:25:51.360Z,12.43
2023-04-06T18:28:24.055Z,12.37
2023-04-06T18:31:00.844Z,12.39
2023-04-06T18:33:37.357Z,12.37
2023-04-06T18:36:11.669Z,12.37
2023-04-06T18:38:47.808Z,12.33
2023-04-06T18:41:23.177Z,12.34
2023-04-06T18:43:56.574Z,12.31
2023-04-06T18:46:29.416Z,12.28
2023-04-06T18:49:05.566Z,12.26
2023-04-06T18:51:40.535Z,12.27
2023-04-06T18:54:13.468Z,12.27
2023-04-06T18:56:48.113Z,12.25
2023-04-06T18:59:21.845Z,12.22
2023-04-06T19:01:54.920Z,12.21
2023-04-06T19:04:32.766Z,12.20
2023-04-06T19:07:06.758Z,12.17
2023-04-06T19:09:41.599Z,12.15
2023-04-06T19:12:15.279Z,12.11
2023-04-06T19:14:51.735Z,12.08
2023-04-06T19:17:24.674Z,12.09
2023-04-06T19:19:58.810Z,12.07
2023-04-06T19:22:31.549Z,12.06
2023-04-06T19:25:04.879Z,12.05
2023-04-06T19:27:37.906Z,12.04
2023-04-06T19:30:11.218Z,12.02
2023-04-06T19:32:44.798Z,12.00
2023-04-06T19:35:19.341Z,11.99
2023-04-06T19:37:52.719Z,12.00
2023-04-06T19:40:25.711Z,12.00
2023-04-06T19:42:58.769Z,11.96
2023-04-06T19:45:31.510Z,11.98
2023-04-06T19:48:04.270Z,11.94
2023-04-06T19:50:38.920Z,11.93
2023-04-06T19:53:14.022Z,11.94
2023-04-06T19:55:47.021Z,11.89
2023-04-06T19:58:24.563Z,11.89
2023-04-06T20:00:59.329Z,11.88
2023-04-06T20:03:33.311Z,11.86
2023-04-06T20:06:09.466Z,11.83
2023-04-06T20:08:42.395Z,11.88
2023-04-06T20:11:15.689Z,11.85
2023-04-06T20:13:48.648Z,11.85
2023-04-06T20:16:22.260Z,11.83
2023-04-06T20:18:55.485Z,11.78
2023-04-06T20:24:24.367Z,11.78
2023-04-06T20:26:58.361Z,11.81
2023-04-06T20:29:31.262Z,11.69
2023-04-06T20:32:04.455Z,11.70
2023-04-06T20:34:37.635Z,11.69
2023-04-06T20:37:14.452Z,11.64
2023-04-06T20:39:47.778Z,11.64
2023-04-06T20:42:21.618Z,11.60
2023-04-06T20:44:54.606Z,11.66
2023-04-06T20:47:27.362Z,11.58
2023-04-06T20:50:00.790Z,11.56
2023-04-06T20:52:35.101Z,11.63
2023-04-06T20:55:08.982Z,11.52
2023-04-06T20:57:43.001Z,11.62
2023-04-06T21:00:17.915Z,11.61
2023-04-06T21:02:50.874Z,11.59
2023-04-06T21:05:24.152Z,11.54
2023-04-06T21:07:58.919Z,11.56
2023-04-06T21:10:31.917Z,11.44
2023-04-06T21:13:05.155Z,11.50
2023-04-06T21:15:38.056Z,11.50
2023-04-06T21:18:11.661Z,11.45
2023-04-06T21:20:44.626Z,11.46
2023-04-06T21:23:23.850Z,11.47
2023-04-06T21:26:03.268Z,11.46
2023-04-06T21:28:36.133Z,11.46
2023-04-06T21:31:09.677Z,11.48
2023-04-06T21:33:42.566Z,11.47
2023-04-06T21:36:15.445Z,11.39
2023-04-06T21:38:49.670Z,11.35
2023-04-06T21:41:22.916Z,11.39
2023-04-06T21:43:55.865Z,11.32
2023-04-06T21:46:28.503Z,11.29
2023-04-06T21:49:01.412Z,11.30
2023-04-06T21:51:34.018Z,11.34
2023-04-06T21:54:08.141Z,11.29
2023-04-06T21:56:40.969Z,11.28
2023-04-06T21:59:15.779Z,11.32
2023-04-06T22:01:48.679Z,11.26
2023-04-06T22:04:23.300Z,11.29
2023-04-06T22:06:56.555Z,11.20
2023-04-06T22:09:30.630Z,11.20
2023-04-06T22:12:03.822Z,11.23
2023-04-06T22:14:37.543Z,11.19
2023-04-06T22:17:10.340Z,11.16
2023-04-06T22:19:43.374Z,11.23
2023-04-06T22:22:16.610Z,11.21
2023-04-06T22:24:51.368Z,11.22
2023-04-06T22:27:24.457Z,11.23
2023-04-06T22:29:57.598Z,11.14
2023-04-06T22:32:30.499Z,11.18
2023-04-06T22:35:03.736Z,11.20
2023-04-06T22:37:36.638Z,11.22
2023-04-06T22:40:11.734Z,11.16
2023-04-06T22:42:44.565Z,11.15
2023-04-06T22:45:17.538Z,11.10
2023-04-06T22:47:50.261Z,11.05
2023-04-06T22:50:23.256Z,11.04
2023-04-06T22:52:56.201Z,10.99
2023-04-06T22:55:30.645Z,11.01
2023-04-06T22:58:03.394Z,10.93
2023-04-06T23:00:36.451Z,10.94
2023-04-06T23:03:09.519Z,10.89
2023-04-06T23:05:42.982Z,10.85
2023-04-06T23:08:15.976Z,10.95
2023-04-06T23:10:51.782Z,10.86
2023-04-06T23:13:24.585Z,10.85
2023-04-06T23:15:57.738Z,10.76
2023-04-06T23:18:30.704Z,10.83
2023-04-06T23:21:03.581Z,10.77
2023-04-06T23:23:36.882Z,10.76
2023-04-06T23:26:11.560Z,10.90
2023-04-06T23:28:44.307Z,10.77
2023-04-06T23:31:17.173Z,10.79
2023-04-06T23:33:49.796Z,10.74
2023-04-06T23:36:22.637Z,10.68
2023-04-06T23:38:56.324Z,10.69
2023-04-06T23:41:30.887Z,10.63
2023-04-06T23:44:03.749Z,10.66
2023-04-06T23:46:36.510Z,10.60
2023-04-06T23:49:09.306Z,10.67
2023-04-06T23:51:42.163Z,10.63
2023-04-06T23:54:14.989Z,10.67
2023-04-06T23:56:50.579Z,10.63
2023-04-06T23:59:23.383Z,10.64
